Airport ID:CSR3
Update Time (UTC):03/07/2022 12:18
Wind Speed (Knots):3
Wind Direction (Magnetic):030
Temperature (°C):16
Dew Point (°C):15
Humidity (%):94
Altimeter (inHg):29.96
Density Altitude (Feet):
Visibility:\\\\
Clouds (Hundreds of feet):\\\\
Present Weather:
METAR:METAR CSR3 031200Z AUTO 35004KT 320V020 ////SM ////// 15/15 A2996 RMK VIS MISG CLD MISG T01540149 SLP146=

The data displayed is for advisory purposes only and is not to be used for flight planning or operations.